Accueil
METAR-TAF:

METAR-TAF

Aéroports :

Gloucester, Angleterre

Aéroport de Gloucestershire

latitude: 51-54N, longitude: 002-10W, altitude: 29 m

Observation

Le bulletin a été fait il y a 28 minutes, à 08:50 UTC
Vent 7 kt de ouest
Température 16°C
Humidité 72%
Pression 1017 hPa
Visibilité 10 km ou plus
Quelques nuages à une hauteur de 2600 ft

METAR: EGBJ 190850Z 27007KT 9999 FEW026 16/11 Q1017

Heure: 10:18 (09:18 UTC)

Prévision

Le bulletin a été fait il y a 51 minutes, à 08:27 UTC
Prévision valable du 19 à 09 UTC au 19 à 18 UTC
Vent 12 kt de ouest/sud-ouest
Visibilité 10 km ou plus
Nuages épars à une hauteur de 2000 ft
Temporairement
du 19 à 09 UTC au 19 à 17 UTC
Vent 15 kt de ouest avec des rafales jusqu'à 25 kt
Probabilité 40% :
Temporairement
du 19 à 09 UTC au 19 à 15 UTC
Visibilité: 7000 m
averses de pluie

TAF: EGBJ 190827Z 1909/1918 25012KT 9999 SCT020 TEMPO 1909/1917 27015G25KT PROB40 TEMPO 1909/1915 7000 SHRA

Observations et prévisions météorologiques de plus de 4000 aéroports (messages METAR et TAF).

Les stations disponibles sont représentées par des disques jaunes et rouges sur la carte.

Passer la souris dessus pour voir le nom de la station.

Cliquer dessus pour voir les observations et prévisions météorologiques.

Pour changer de carte: cliquez sur les boutons verts avec une croix noire pour zoomer, sur le bouton vert avec un tiret pour effectuer un zoom arrière, ou sur les flèches vertes pour les cartes adjacentes.


METAR-TAF: